createdAt,value
2022-12-18T10:03:41.180Z,98540.94
2022-12-18T10:06:10.258Z,98541.25
2022-12-18T10:08:45.227Z,98539.19
2022-12-18T10:11:22.668Z,98535.75
2022-12-18T10:13:51.604Z,98540.13
2022-12-18T10:16:20.814Z,98538.91
2022-12-18T10:19:11.298Z,98539.84
2022-12-18T10:21:42.402Z,98542.75
2022-12-18T10:24:14.482Z,98533.19
2022-12-18T10:26:42.042Z,98534.44
2022-12-18T10:29:11.247Z,98537.94
2022-12-18T10:31:39.805Z,98536.75
2022-12-18T10:34:11.650Z,98527.16
2022-12-18T10:36:39.059Z,98538.25
2022-12-18T10:39:16.590Z,98535.34
2022-12-18T10:41:46.413Z,98536.16
2022-12-18T10:44:19.932Z,98543.53
2022-12-18T10:46:47.565Z,98528.53
2022-12-18T10:49:26.697Z,98531.13
2022-12-18T10:52:04.947Z,98532.69
2022-12-18T10:54:34.505Z,98533.69
2022-12-18T10:57:16.309Z,98532.84
2022-12-18T10:59:51.746Z,98533.28
2022-12-18T11:02:29.728Z,98530.41
2022-12-18T11:04:58.615Z,98524.03
2022-12-18T11:07:25.926Z,98527.75
2022-12-18T11:10:01.128Z,98523.25
2022-12-18T11:12:29.208Z,98525.69
2022-12-18T11:14:59.293Z,98520.09
2022-12-18T11:17:29.152Z,98520.63
2022-12-18T11:19:58.415Z,98520.00
2022-12-18T11:22:26.769Z,98512.66
2022-12-18T11:25:29.462Z,98510.84
2022-12-18T11:27:42.433Z,98515.75
2022-12-18T11:30:09.906Z,98516.38
2022-12-18T11:32:37.320Z,98513.72
2022-12-18T11:35:13.182Z,98521.59
2022-12-18T11:37:41.014Z,98517.50
2022-12-18T11:40:11.408Z,98514.53
2022-12-18T11:42:40.848Z,98514.44
2022-12-18T11:45:21.547Z,98510.78
2022-12-18T11:47:51.188Z,98505.44
2022-12-18T11:50:22.005Z,98506.88
2022-12-18T11:52:55.977Z,98500.88
2022-12-18T11:55:32.119Z,98492.50
2022-12-18T11:58:06.057Z,98483.06
2022-12-18T12:00:33.293Z,98471.63
2022-12-18T12:03:18.784Z,98472.63
2022-12-18T12:06:10.150Z,98467.00
2022-12-18T12:08:43.239Z,98468.28
2022-12-18T12:11:14.211Z,98465.00
2022-12-18T12:13:46.392Z,98465.19
2022-12-18T12:16:18.275Z,98455.47
2022-12-18T12:18:53.873Z,98450.78
2022-12-18T12:21:24.897Z,98456.38
2022-12-18T12:23:54.351Z,98451.59
2022-12-18T12:26:24.454Z,98455.38
2022-12-18T12:29:01.374Z,98451.56
2022-12-18T12:31:41.130Z,98448.69
2022-12-18T12:34:16.182Z,98441.44
2022-12-18T12:36:52.479Z,98434.84
2022-12-18T12:39:22.878Z,98430.84
2022-12-18T12:41:50.358Z,98436.31
2022-12-18T12:44:19.930Z,98425.81
2022-12-18T12:46:47.718Z,98421.84
2022-12-18T12:49:17.158Z,98421.47
2022-12-18T12:51:47.138Z,98429.09
2022-12-18T12:54:19.934Z,98428.72
2022-12-18T12:56:49.440Z,98421.00
2022-12-18T12:59:19.779Z,98422.69
2022-12-18T13:01:51.164Z,98427.84
2022-12-18T13:04:22.985Z,98407.75
2022-12-18T13:06:55.794Z,98414.47
2022-12-18T13:09:23.173Z,98416.59
2022-12-18T13:11:53.682Z,98408.50
2022-12-18T13:14:27.983Z,98407.94
2022-12-18T13:17:33.894Z,98406.94
2022-12-18T13:20:08.607Z,98405.84
2022-12-18T13:22:37.947Z,98407.91
2022-12-18T13:25:20.689Z,98398.38
2022-12-18T13:28:16.161Z,98402.25
2022-12-18T13:30:55.630Z,98407.47
2022-12-18T13:34:24.672Z,98407.44
2022-12-18T13:36:36.141Z,98393.28
2022-12-18T13:39:26.696Z,98391.66
2022-12-18T13:42:38.003Z,98395.28
2022-12-18T13:45:24.314Z,98390.88
2022-12-18T13:47:51.592Z,98394.66
2022-12-18T13:50:23.245Z,98402.88
2022-12-18T13:52:53.055Z,98399.97
2022-12-18T13:55:21.936Z,98397.25
2022-12-18T13:57:49.633Z,98390.88
2022-12-18T14:00:25.823Z,98386.81
2022-12-18T14:02:53.699Z,98392.56
2022-12-18T14:05:24.081Z,98384.81
2022-12-18T14:07:51.871Z,98385.13
2022-12-18T14:13:11.042Z,98388.94
2022-12-18T14:15:41.256Z,98383.88
2022-12-18T14:18:18.076Z,98384.69
2022-12-18T14:20:50.734Z,98388.16
2022-12-18T14:23:30.555Z,98395.47
2022-12-18T14:26:03.764Z,98399.94
2022-12-18T14:28:33.172Z,98391.75
2022-12-18T14:31:00.563Z,98396.56
2022-12-18T14:33:28.363Z,98398.22
2022-12-18T14:35:59.304Z,98393.13
2022-12-18T14:38:30.520Z,98400.63
2022-12-18T14:40:59.692Z,98397.28
2022-12-18T14:43:27.600Z,98404.25
2022-12-18T14:45:56.224Z,98410.41
2022-12-18T14:48:25.798Z,98408.75
2022-12-18T14:50:57.649Z,98412.03
2022-12-18T14:53:27.425Z,98403.97
2022-12-18T14:55:54.724Z,98403.75
2022-12-18T14:58:24.553Z,98407.59
2022-12-18T15:00:53.794Z,98404.25
2022-12-18T15:03:22.122Z,98404.88
2022-12-18T15:05:51.932Z,98409.44
2022-12-18T15:08:31.091Z,98410.28
2022-12-18T15:10:58.373Z,98411.94
2022-12-18T15:13:27.105Z,98418.56
2022-12-18T15:15:54.463Z,98428.06
2022-12-18T15:18:23.800Z,98421.50
2022-12-18T15:20:52.001Z,98424.56
2022-12-18T15:23:20.617Z,98419.16
2022-12-18T15:25:48.629Z,98421.00
2022-12-18T15:28:19.414Z,98421.53
2022-12-18T15:31:04.837Z,98428.94
2022-12-18T15:33:33.563Z,98423.06
2022-12-18T15:36:01.115Z,98423.06
2022-12-18T15:38:28.504Z,98421.59
2022-12-18T15:40:55.789Z,98419.97
2022-12-18T15:43:23.344Z,98426.84
2022-12-18T15:45:50.586Z,98430.91
2022-12-18T15:48:22.098Z,98425.38
2022-12-18T15:50:49.879Z,98418.53
2022-12-18T15:53:17.246Z,98426.69
2022-12-18T15:55:44.580Z,98419.34
2022-12-18T15:58:11.935Z,98427.69
2022-12-18T16:00:41.181Z,98417.53
2022-12-18T16:03:09.503Z,98418.53
2022-12-18T16:05:38.292Z,98429.16
2022-12-18T16:08:05.620Z,98434.03
2022-12-18T16:10:32.889Z,98418.53
2022-12-18T16:13:00.241Z,98417.03
2022-12-18T16:15:27.595Z,98413.31
2022-12-18T16:17:54.988Z,98413.28
2022-12-18T16:20:22.763Z,98420.97
2022-12-18T16:22:51.645Z,98424.41
2022-12-18T16:25:20.322Z,98420.16
2022-12-18T16:27:47.670Z,98423.56
2022-12-18T16:30:16.371Z,98424.53
2022-12-18T16:32:43.667Z,98429.09
2022-12-18T16:35:12.022Z,98423.56
2022-12-18T16:37:39.400Z,98437.44
2022-12-18T16:40:09.944Z,98439.88
2022-12-18T16:42:37.377Z,98443.22
2022-12-18T16:45:05.423Z,98434.34
2022-12-18T16:47:32.799Z,98436.13
2022-12-18T16:50:00.124Z,98444.00
2022-12-18T16:52:27.537Z,98442.13
2022-12-18T16:54:54.821Z,98438.38
2022-12-18T16:57:25.350Z,98432.31
2022-12-18T16:59:52.893Z,98427.66
2022-12-18T17:02:23.372Z,98438.88
2022-12-18T17:04:51.066Z,98426.47
2022-12-18T17:07:18.380Z,98419.59
2022-12-18T17:09:45.744Z,98409.19
2022-12-18T17:12:12.982Z,98420.00
2022-12-18T17:14:41.704Z,98420.50
2022-12-18T17:17:24.471Z,98413.47
2022-12-18T17:19:52.698Z,98404.66
2022-12-18T17:22:20.220Z,98404.97
2022-12-18T17:24:47.533Z,98404.16
2022-12-18T17:27:14.996Z,98418.03
2022-12-18T17:29:47.741Z,98434.34
2022-12-18T17:32:16.182Z,98439.53
2022-12-18T17:34:43.649Z,98445.84
2022-12-18T17:37:13.875Z,98435.72
2022-12-18T17:39:41.354Z,98451.78
2022-12-18T17:42:08.675Z,98443.84
2022-12-18T17:44:38.223Z,98437.78
2022-12-18T17:47:07.032Z,98441.13
2022-12-18T17:49:34.505Z,98443.88
2022-12-18T17:52:01.845Z,98436.59
2022-12-18T17:54:29.259Z,98434.34
2022-12-18T17:56:56.815Z,98420.91
2022-12-18T17:59:26.563Z,98420.28
2022-12-18T18:01:54.021Z,98421.63
2022-12-18T18:04:23.140Z,98435.25
2022-12-18T18:06:50.396Z,98433.53
2022-12-18T18:09:17.794Z,98435.22
2022-12-18T18:11:45.069Z,98440.19
2022-12-18T18:14:13.580Z,98437.88
2022-12-18T18:16:42.028Z,98436.13
2022-12-18T18:19:10.197Z,98435.84
2022-12-18T18:21:40.512Z,98442.63
2022-12-18T18:24:08.768Z,98438.41
2022-12-18T18:26:37.923Z,98442.50
2022-12-18T18:29:05.987Z,98436.28
2022-12-18T18:31:33.415Z,98430.56
2022-12-18T18:34:03.041Z,98430.72
2022-12-18T18:36:30.334Z,98441.50
2022-12-18T18:39:00.546Z,98433.84
2022-12-18T18:41:30.623Z,98428.13
2022-12-18T18:43:58.109Z,98421.56
2022-12-18T18:46:25.488Z,98433.97
2022-12-18T18:48:52.844Z,98428.44
2022-12-18T18:51:21.377Z,98430.09
2022-12-18T18:53:49.815Z,98428.97
2022-12-18T18:56:56.738Z,98442.22
2022-12-18T18:59:06.450Z,98446.13
2022-12-18T19:01:33.823Z,98465.34
2022-12-18T19:04:01.082Z,98455.25
2022-12-18T19:06:29.885Z,98460.50
2022-12-18T19:08:58.415Z,98467.00
2022-12-18T19:11:30.619Z,98449.69
2022-12-18T19:14:03.020Z,98434.38
2022-12-18T19:16:30.405Z,98436.47
2022-12-18T19:19:01.973Z,98442.84
2022-12-18T19:21:30.473Z,98424.56
2022-12-18T19:24:01.343Z,98429.16
2022-12-18T19:26:30.125Z,98426.34
2022-12-18T19:29:01.387Z,98428.47
2022-12-18T19:31:34.771Z,98422.94
2022-12-18T19:34:03.562Z,98417.03
2022-12-18T19:36:31.320Z,98420.47
2022-12-18T19:39:00.184Z,98441.94
2022-12-18T19:41:31.260Z,98449.59
2022-12-18T19:44:07.859Z,98440.47
2022-12-18T19:46:37.886Z,98433.13
2022-12-18T19:49:09.142Z,98447.06
2022-12-18T19:51:36.519Z,98443.50
2022-12-18T19:54:04.009Z,98438.91
2022-12-18T19:56:33.484Z,98439.72
2022-12-18T19:59:00.679Z,98440.19
2022-12-18T20:01:28.214Z,98448.34
2022-12-18T20:03:56.847Z,98451.84
2022-12-18T20:06:26.578Z,98451.31
2022-12-18T20:08:56.815Z,98433.22
2022-12-18T20:11:27.762Z,98429.47
2022-12-18T20:13:56.300Z,98420.31
2022-12-18T20:16:23.400Z,98410.84
2022-12-18T20:18:50.727Z,98408.06
2022-12-18T20:21:20.655Z,98416.06
2022-12-18T20:23:47.927Z,98410.34
2022-12-18T20:26:15.074Z,98409.69
2022-12-18T20:28:42.253Z,98408.88
2022-12-18T20:31:13.512Z,98404.47
2022-12-18T20:33:41.904Z,98405.72
2022-12-18T20:36:12.679Z,98401.00
2022-12-18T20:38:40.182Z,98404.59
2022-12-18T20:41:08.216Z,98417.22
2022-12-18T20:43:35.489Z,98417.06
2022-12-18T20:46:02.722Z,98418.44
2022-12-18T20:48:31.788Z,98423.53
2022-12-18T20:50:59.466Z,98415.72
2022-12-18T20:53:29.223Z,98407.53
2022-12-18T20:55:56.414Z,98387.16
2022-12-18T20:58:23.596Z,98392.53
2022-12-18T21:00:50.874Z,98392.69
2022-12-18T21:03:18.216Z,98400.91
2022-12-18T21:05:46.889Z,98410.44
2022-12-18T21:08:14.227Z,98414.88
2022-12-18T21:10:45.125Z,98401.34
2022-12-18T21:13:12.655Z,98398.41
2022-12-18T21:15:41.552Z,98382.94
2022-12-18T21:18:08.821Z,98391.38
2022-12-18T21:20:36.108Z,98394.34
2022-12-18T21:23:13.200Z,98402.66
2022-12-18T21:25:44.042Z,98391.72
2022-12-18T21:28:12.903Z,98397.78
2022-12-18T21:30:40.319Z,98399.41
2022-12-18T21:33:07.533Z,98392.22
2022-12-18T21:35:34.850Z,98387.84
2022-12-18T21:38:03.860Z,98387.16
2022-12-18T21:40:34.384Z,98396.13
2022-12-18T21:43:01.756Z,98390.09
2022-12-18T21:45:28.931Z,98390.59
2022-12-18T21:47:56.284Z,98383.25
2022-12-18T21:50:23.664Z,98381.44
2022-12-18T21:52:50.945Z,98381.75
2022-12-18T21:55:18.258Z,98389.44
2022-12-18T21:57:46.917Z,98392.72
2022-12-18T22:00:19.062Z,98390.44
2022-12-18T22:02:47.838Z,98388.66
2022-12-18T22:05:15.297Z,98385.38
2022-12-18T22:07:42.569Z,98391.56
2022-12-18T22:10:10.214Z,98393.38
